Ottoman Nobility — TCDA2 — position and weather

sailwx.info

Track history (hours):
 
Tides and Currents Weather Stations Pressure Air Temp Water Temp Dewpoint Dewpoint Depression Visibility Wind Speed Wind Dir Waves Ship Positions

Ottoman Nobility

Last reported at 2015-May-25 18:16 UTC. Time now 2015-May-26 09:39 UTC.
Position N 33°43' E 022°27'.

Length 269 m; draft 17.2 m.

Type: Ship. MMSI: 271000773.

Date/timePositionNaut miles runAvg speedWind from/ knotsBaromVisibWave heightAir tempDewpointWater temp
2015-May-25 18:16N 33°43' E 022°27'  
2015-May-23 05:33N 31°09' E 029°37'1 0.1
2015-May-22 18:30N 31°08' E 029°36'0 0.0
2015-May-22 17:33N 31°08' E 029°36'0 0.0
2015-May-20 18:33N 31°08' E 029°36'0 0.0
2015-May-20 11:18N 31°08' E 029°36'13 6.6
2015-May-20 09:17N 31°21' E 029°37'911.6
2015-May-20 08:28N 31°31' E 029°38'5 1.6
2015-May-20 05:33N 31°35' E 029°35'2 1.7
2015-May-20 04:17N 31°34' E 029°33'14 0.4
2015-May-18 17:12N 31°33' E 029°16'11 0.5
2015-May-17 18:17N 31°44' E 029°14'1 1.0
2015-May-17 17:33N 31°45' E 029°14'8 3.3
2015-May-17 15:11N 31°37' E 029°15'13 8.2
2015-May-17 13:33N 31°24' E 029°20'1 1.5
2015-May-17 12:33N 31°25' E 029°19'1 1.2
2015-May-17 11:33N 31°26' E 029°18'1 1.1
2015-May-17 10:33N 31°27' E 029°17'1 1.2
2015-May-17 09:34N 31°28' E 029°16'2 0.8
2015-May-17 06:34N 31°30' E 029°15'1 0.5
2015-May-17 03:31N 31°32' E 029°14'0 0.2
2015-May-17 02:33N 31°32' E 029°14'9 0.8
2015-May-16 15:29N 31°41' E 029°15'1 0.9
2015-May-16 14:33N 31°42' E 029°14'1 0.7
2015-May-16 13:33N 31°43' E 029°15'0 0.4
2015-May-16 12:33N 31°43' E 029°14'0 0.3
2015-May-16 11:20N 31°43' E 029°14'0 0.3
2015-May-16 10:15N 31°44' E 029°14'3 0.3
2015-May-16 01:12N 31°47' E 029°14'0 0.4
2015-May-16 00:19N 31°47' E 029°14'0 0.4
2015-May-15 23:31N 31°47' E 029°14'0 0.4
2015-May-15 22:33N 31°48' E 029°13'1 0.4
2015-May-15 21:08N 31°48' E 029°13'1 0.4
2015-May-15 19:34N 31°48' E 029°12'1 0.4
2015-May-15 18:23N 31°48' E 029°12'  
Track history (hours):
 
Tides and Currents Weather Stations Pressure Air Temp Water Temp Dewpoint Dewpoint Depression Visibility Wind Speed Wind Dir Waves Ship Positions

Ottoman Nobility

Last reported at 2015-May-25 18:16 UTC. Time now 2015-May-26 09:39 UTC.
Position N 33°43' E 022°27'.

Length 269 m; draft 17.2 m.

Type: Ship. MMSI: 271000773.

Date/timePositionNaut miles runAvg speedWind from/ knotsBaromVisibWave heightAir tempDewpointWater temp
2015-May-25 18:16N 33°43' E 022°27'  
2015-May-23 05:33N 31°09' E 029°37'1 0.1
2015-May-22 18:30N 31°08' E 029°36'0 0.0
2015-May-22 17:33N 31°08' E 029°36'0 0.0
2015-May-20 18:33N 31°08' E 029°36'0 0.0
2015-May-20 11:18N 31°08' E 029°36'13 6.6
2015-May-20 09:17N 31°21' E 029°37'911.6
2015-May-20 08:28N 31°31' E 029°38'5 1.6
2015-May-20 05:33N 31°35' E 029°35'2 1.7
2015-May-20 04:17N 31°34' E 029°33'14 0.4
2015-May-18 17:12N 31°33' E 029°16'11 0.5
2015-May-17 18:17N 31°44' E 029°14'1 1.0
2015-May-17 17:33N 31°45' E 029°14'8 3.3
2015-May-17 15:11N 31°37' E 029°15'13 8.2
2015-May-17 13:33N 31°24' E 029°20'1 1.5
2015-May-17 12:33N 31°25' E 029°19'1 1.2
2015-May-17 11:33N 31°26' E 029°18'1 1.1
2015-May-17 10:33N 31°27' E 029°17'1 1.2
2015-May-17 09:34N 31°28' E 029°16'2 0.8
2015-May-17 06:34N 31°30' E 029°15'1 0.5
2015-May-17 03:31N 31°32' E 029°14'0 0.2
2015-May-17 02:33N 31°32' E 029°14'9 0.8
2015-May-16 15:29N 31°41' E 029°15'1 0.9
2015-May-16 14:33N 31°42' E 029°14'1 0.7
2015-May-16 13:33N 31°43' E 029°15'0 0.4
2015-May-16 12:33N 31°43' E 029°14'0 0.3
2015-May-16 11:20N 31°43' E 029°14'0 0.3
2015-May-16 10:15N 31°44' E 029°14'3 0.3
2015-May-16 01:12N 31°47' E 029°14'0 0.4
2015-May-16 00:19N 31°47' E 029°14'0 0.4
2015-May-15 23:31N 31°47' E 029°14'0 0.4
2015-May-15 22:33N 31°48' E 029°13'1 0.4
2015-May-15 21:08N 31°48' E 029°13'1 0.4
2015-May-15 19:34N 31°48' E 029°12'1 0.4
2015-May-15 18:23N 31°48' E 029°12'  

Dump ship's entire track history